sensor_id;sensor_type;location;lat;lon;timestamp;P1;durP1;ratioP1;P2;durP2;ratioP2
35562;SDS011;21665;40.108;18.302;2024-01-10T00:02:19;30.88;;;14.38;;
35562;SDS011;21665;40.108;18.302;2024-01-10T00:04:46;27.17;;;14.10;;
35562;SDS011;21665;40.108;18.302;2024-01-10T00:07:14;26.08;;;13.55;;
35562;SDS011;21665;40.108;18.302;2024-01-10T00:09:41;29.65;;;13.35;;
35562;SDS011;21665;40.108;18.302;2024-01-10T00:12:07;27.10;;;14.15;;
35562;SDS011;21665;40.108;18.302;2024-01-10T00:14:34;29.38;;;13.98;;
35562;SDS011;21665;40.108;18.302;2024-01-10T00:17:00;28.15;;;14.48;;
35562;SDS011;21665;40.108;18.302;2024-01-10T00:19:27;32.55;;;15.63;;
35562;SDS011;21665;40.108;18.302;2024-01-10T00:21:54;27.05;;;15.07;;
35562;SDS011;21665;40.108;18.302;2024-01-10T00:24:20;31.25;;;14.27;;
35562;SDS011;21665;40.108;18.302;2024-01-10T00:26:46;30.08;;;14.43;;
35562;SDS011;21665;40.108;18.302;2024-01-10T00:29:16;29.67;;;14.68;;
35562;SDS011;21665;40.108;18.302;2024-01-10T00:31:42;28.13;;;14.15;;
35562;SDS011;21665;40.108;18.302;2024-01-10T00:34:09;29.45;;;14.55;;
35562;SDS011;21665;40.108;18.302;2024-01-10T00:39:05;25.63;;;14.50;;
35562;SDS011;21665;40.108;18.302;2024-01-10T00:41:32;32.88;;;13.90;;
35562;SDS011;21665;40.108;18.302;2024-01-10T00:43:58;27.52;;;13.30;;
35562;SDS011;21665;40.108;18.302;2024-01-10T00:46:24;25.90;;;12.88;;
35562;SDS011;21665;40.108;18.302;2024-01-10T00:48:51;33.15;;;13.48;;
35562;SDS011;21665;40.108;18.302;2024-01-10T00:51:18;24.50;;;12.55;;
35562;SDS011;21665;40.108;18.302;2024-01-10T00:53:47;21.45;;;12.13;;
35562;SDS011;21665;40.108;18.302;2024-01-10T00:56:14;28.92;;;12.40;;
35562;SDS011;21665;40.108;18.302;2024-01-10T00:58:40;22.35;;;11.05;;
35562;SDS011;21665;40.108;18.302;2024-01-10T01:01:07;32.78;;;12.38;;
35562;SDS011;21665;40.108;18.302;2024-01-10T01:03:33;27.73;;;12.45;;
35562;SDS011;21665;40.108;18.302;2024-01-10T01:06:01;30.85;;;13.55;;
35562;SDS011;21665;40.108;18.302;2024-01-10T01:08:30;23.15;;;12.32;;
35562;SDS011;21665;40.108;18.302;2024-01-10T01:10:56;26.30;;;12.07;;
35562;SDS011;21665;40.108;18.302;2024-01-10T01:13:23;25.02;;;12.88;;
35562;SDS011;21665;40.108;18.302;2024-01-10T01:15:49;35.17;;;13.32;;
35562;SDS011;21665;40.108;18.302;2024-01-10T01:18:16;28.38;;;13.00;;
35562;SDS011;21665;40.108;18.302;2024-01-10T01:20:42;25.02;;;12.90;;
35562;SDS011;21665;40.108;18.302;2024-01-10T01:23:12;23.23;;;12.27;;
35562;SDS011;21665;40.108;18.302;2024-01-10T01:25:38;20.73;;;11.38;;
35562;SDS011;21665;40.108;18.302;2024-01-10T01:28:13;25.73;;;11.85;;
35562;SDS011;21665;40.108;18.302;2024-01-10T01:30:40;26.25;;;12.52;;
35562;SDS011;21665;40.108;18.302;2024-01-10T01:33:06;26.38;;;12.20;;
35562;SDS011;21665;40.108;18.302;2024-01-10T01:35:36;24.30;;;12.38;;
35562;SDS011;21665;40.108;18.302;2024-01-10T01:38:02;24.70;;;11.77;;
35562;SDS011;21665;40.108;18.302;2024-01-10T01:40:28;28.08;;;12.55;;
35562;SDS011;21665;40.108;18.302;2024-01-10T01:42:55;23.13;;;12.20;;
35562;SDS011;21665;40.108;18.302;2024-01-10T01:45:21;27.63;;;11.82;;
35562;SDS011;21665;40.108;18.302;2024-01-10T01:47:47;24.63;;;12.05;;
35562;SDS011;21665;40.108;18.302;2024-01-10T01:50:15;25.20;;;11.00;;
35562;SDS011;21665;40.108;18.302;2024-01-10T01:52:42;26.40;;;11.15;;
35562;SDS011;21665;40.108;18.302;2024-01-10T01:55:10;24.40;;;11.27;;
35562;SDS011;21665;40.108;18.302;2024-01-10T01:57:37;24.40;;;11.80;;
35562;SDS011;21665;40.108;18.302;2024-01-10T02:00:04;22.98;;;11.35;;
35562;SDS011;21665;40.108;18.302;2024-01-10T02:02:34;27.88;;;11.45;;
35562;SDS011;21665;40.108;18.302;2024-01-10T02:05:02;25.55;;;12.65;;
35562;SDS011;21665;40.108;18.302;2024-01-10T02:07:29;26.33;;;12.35;;
35562;SDS011;21665;40.108;18.302;2024-01-10T02:09:55;26.67;;;11.85;;
35562;SDS011;21665;40.108;18.302;2024-01-10T02:12:22;27.00;;;12.25;;
35562;SDS011;21665;40.108;18.302;2024-01-10T02:14:50;25.75;;;11.30;;
35562;SDS011;21665;40.108;18.302;2024-01-10T02:17:16;26.08;;;11.43;;
35562;SDS011;21665;40.108;18.302;2024-01-10T02:19:42;21.85;;;10.82;;
35562;SDS011;21665;40.108;18.302;2024-01-10T02:22:08;22.60;;;11.07;;
35562;SDS011;21665;40.108;18.302;2024-01-10T02:24:36;29.27;;;10.73;;
35562;SDS011;21665;40.108;18.302;2024-01-10T02:27:03;23.17;;;10.52;;
35562;SDS011;21665;40.108;18.302;2024-01-10T02:29:30;21.75;;;9.43;;
35562;SDS011;21665;40.108;18.302;2024-01-10T02:31:57;23.33;;;9.00;;
35562;SDS011;21665;40.108;18.302;2024-01-10T02:34:23;22.05;;;8.73;;
35562;SDS011;21665;40.108;18.302;2024-01-10T02:36:52;16.58;;;8.90;;
35562;SDS011;21665;40.108;18.302;2024-01-10T02:39:18;18.40;;;8.95;;
35562;SDS011;21665;40.108;18.302;2024-01-10T02:41:45;21.77;;;8.88;;
35562;SDS011;21665;40.108;18.302;2024-01-10T02:44:11;21.15;;;9.25;;
35562;SDS011;21665;40.108;18.302;2024-01-10T02:46:40;17.75;;;8.20;;
35562;SDS011;21665;40.108;18.302;2024-01-10T02:49:06;17.48;;;8.98;;
35562;SDS011;21665;40.108;18.302;2024-01-10T02:51:39;20.83;;;8.38;;
35562;SDS011;21665;40.108;18.302;2024-01-10T02:54:06;18.63;;;8.00;;
35562;SDS011;21665;40.108;18.302;2024-01-10T02:56:32;16.90;;;8.73;;
35562;SDS011;21665;40.108;18.302;2024-01-10T02:58:59;16.35;;;8.52;;
35562;SDS011;21665;40.108;18.302;2024-01-10T03:01:25;19.85;;;8.23;;
35562;SDS011;21665;40.108;18.302;2024-01-10T03:03:53;18.42;;;8.48;;
35562;SDS011;21665;40.108;18.302;2024-01-10T03:06:19;14.30;;;8.15;;
35562;SDS011;21665;40.108;18.302;2024-01-10T03:08:46;18.88;;;8.75;;
35562;SDS011;21665;40.108;18.302;2024-01-10T03:11:12;18.58;;;8.02;;
35562;SDS011;21665;40.108;18.302;2024-01-10T03:13:38;14.90;;;7.75;;
35562;SDS011;21665;40.108;18.302;2024-01-10T03:16:05;17.77;;;7.82;;
35562;SDS011;21665;40.108;18.302;2024-01-10T03:18:31;18.70;;;8.30;;
35562;SDS011;21665;40.108;18.302;2024-01-10T03:20:58;19.10;;;8.88;;
35562;SDS011;21665;40.108;18.302;2024-01-10T03:23:24;19.95;;;8.38;;
35562;SDS011;21665;40.108;18.302;2024-01-10T03:25:50;17.17;;;8.90;;
35562;SDS011;21665;40.108;18.302;2024-01-10T03:28:17;12.27;;;8.27;;
35562;SDS011;21665;40.108;18.302;2024-01-10T03:30:43;21.45;;;8.52;;
35562;SDS011;21665;40.108;18.302;2024-01-10T03:33:10;19.73;;;8.65;;
35562;SDS011;21665;40.108;18.302;2024-01-10T03:35:36;18.90;;;8.70;;
35562;SDS011;21665;40.108;18.302;2024-01-10T03:38:03;17.50;;;8.77;;
35562;SDS011;21665;40.108;18.302;2024-01-10T03:40:29;17.70;;;7.82;;
35562;SDS011;21665;40.108;18.302;2024-01-10T03:42:55;20.48;;;7.93;;
35562;SDS011;21665;40.108;18.302;2024-01-10T03:45:22;14.18;;;8.40;;
35562;SDS011;21665;40.108;18.302;2024-01-10T03:47:49;18.13;;;8.32;;
35562;SDS011;21665;40.108;18.302;2024-01-10T03:50:17;17.60;;;8.52;;
35562;SDS011;21665;40.108;18.302;2024-01-10T03:52:45;17.85;;;8.38;;
35562;SDS011;21665;40.108;18.302;2024-01-10T03:55:12;15.98;;;7.63;;
35562;SDS011;21665;40.108;18.302;2024-01-10T03:57:42;12.40;;;7.78;;
35562;SDS011;21665;40.108;18.302;2024-01-10T04:00:10;14.30;;;7.50;;
35562;SDS011;21665;40.108;18.302;2024-01-10T04:02:39;13.93;;;8.25;;
35562;SDS011;21665;40.108;18.302;2024-01-10T04:05:06;17.52;;;8.10;;
35562;SDS011;21665;40.108;18.302;2024-01-10T04:07:36;24.85;;;8.15;;
35562;SDS011;21665;40.108;18.302;2024-01-10T04:10:02;17.73;;;8.45;;
35562;SDS011;21665;40.108;18.302;2024-01-10T04:12:29;16.52;;;8.02;;
35562;SDS011;21665;40.108;18.302;2024-01-10T04:14:56;15.20;;;7.85;;
35562;SDS011;21665;40.108;18.302;2024-01-10T04:17:22;16.98;;;8.65;;
35562;SDS011;21665;40.108;18.302;2024-01-10T04:19:57;20.15;;;9.02;;
35562;SDS011;21665;40.108;18.302;2024-01-10T04:22:38;19.38;;;8.45;;
35562;SDS011;21665;40.108;18.302;2024-01-10T04:25:05;19.10;;;9.05;;
35562;SDS011;21665;40.108;18.302;2024-01-10T04:31:15;17.60;;;8.88;;
35562;SDS011;21665;40.108;18.302;2024-01-10T04:34:34;22.30;;;9.00;;
35562;SDS011;21665;40.108;18.302;2024-01-10T04:37:00;21.15;;;10.27;;
35562;SDS011;21665;40.108;18.302;2024-01-10T04:39:26;17.83;;;9.73;;
35562;SDS011;21665;40.108;18.302;2024-01-10T04:41:53;19.05;;;10.10;;
35562;SDS011;21665;40.108;18.302;2024-01-10T04:44:19;21.15;;;10.18;;
35562;SDS011;21665;40.108;18.302;2024-01-10T04:46:46;24.10;;;9.65;;
35562;SDS011;21665;40.108;18.302;2024-01-10T04:49:12;17.40;;;9.25;;
35562;SDS011;21665;40.108;18.302;2024-01-10T04:51:39;22.65;;;9.73;;
35562;SDS011;21665;40.108;18.302;2024-01-10T04:54:05;18.52;;;9.68;;
35562;SDS011;21665;40.108;18.302;2024-01-10T04:56:31;17.92;;;10.20;;
35562;SDS011;21665;40.108;18.302;2024-01-10T04:58:58;20.70;;;9.52;;
35562;SDS011;21665;40.108;18.302;2024-01-10T05:01:27;20.80;;;10.63;;
35562;SDS011;21665;40.108;18.302;2024-01-10T05:03:54;19.55;;;10.00;;
35562;SDS011;21665;40.108;18.302;2024-01-10T05:06:20;20.83;;;9.25;;
35562;SDS011;21665;40.108;18.302;2024-01-10T05:08:46;18.58;;;9.95;;
35562;SDS011;21665;40.108;18.302;2024-01-10T05:11:16;20.88;;;10.00;;
35562;SDS011;21665;40.108;18.302;2024-01-10T05:13:43;21.95;;;9.80;;
35562;SDS011;21665;40.108;18.302;2024-01-10T05:16:09;18.75;;;9.10;;
35562;SDS011;21665;40.108;18.302;2024-01-10T05:18:36;17.90;;;9.85;;
35562;SDS011;21665;40.108;18.302;2024-01-10T05:21:05;25.85;;;9.90;;
35562;SDS011;21665;40.108;18.302;2024-01-10T05:23:31;22.90;;;10.60;;
35562;SDS011;21665;40.108;18.302;2024-01-10T05:25:58;23.58;;;10.18;;
35562;SDS011;21665;40.108;18.302;2024-01-10T05:28:24;18.52;;;8.90;;
35562;SDS011;21665;40.108;18.302;2024-01-10T05:30:50;18.30;;;9.15;;
35562;SDS011;21665;40.108;18.302;2024-01-10T05:33:17;21.35;;;10.45;;
35562;SDS011;21665;40.108;18.302;2024-01-10T05:35:43;20.35;;;9.68;;
35562;SDS011;21665;40.108;18.302;2024-01-10T05:38:09;17.65;;;9.02;;
35562;SDS011;21665;40.108;18.302;2024-01-10T05:40:37;20.17;;;10.57;;
35562;SDS011;21665;40.108;18.302;2024-01-10T05:43:06;19.55;;;9.95;;
35562;SDS011;21665;40.108;18.302;2024-01-10T05:45:32;22.23;;;10.38;;
35562;SDS011;21665;40.108;18.302;2024-01-10T05:47:59;16.00;;;9.52;;
35562;SDS011;21665;40.108;18.302;2024-01-10T05:50:31;19.58;;;9.90;;
35562;SDS011;21665;40.108;18.302;2024-01-10T05:52:58;18.63;;;9.68;;
35562;SDS011;21665;40.108;18.302;2024-01-10T05:55:24;19.05;;;9.23;;
35562;SDS011;21665;40.108;18.302;2024-01-10T05:57:50;23.10;;;10.02;;
35562;SDS011;21665;40.108;18.302;2024-01-10T06:00:17;25.30;;;10.18;;
35562;SDS011;21665;40.108;18.302;2024-01-10T06:02:43;22.10;;;9.95;;
35562;SDS011;21665;40.108;18.302;2024-01-10T06:05:10;20.05;;;10.55;;
35562;SDS011;21665;40.108;18.302;2024-01-10T06:07:37;17.73;;;9.70;;
35562;SDS011;21665;40.108;18.302;2024-01-10T06:10:05;20.38;;;10.25;;
35562;SDS011;21665;40.108;18.302;2024-01-10T06:12:32;19.80;;;10.63;;
35562;SDS011;21665;40.108;18.302;2024-01-10T06:14:58;21.38;;;11.05;;
35562;SDS011;21665;40.108;18.302;2024-01-10T06:17:24;24.88;;;10.50;;
35562;SDS011;21665;40.108;18.302;2024-01-10T06:19:51;23.17;;;11.65;;
35562;SDS011;21665;40.108;18.302;2024-01-10T06:22:18;24.40;;;11.68;;
35562;SDS011;21665;40.108;18.302;2024-01-10T06:24:51;24.90;;;12.23;;
35562;SDS011;21665;40.108;18.302;2024-01-10T06:27:21;24.92;;;11.63;;
35562;SDS011;21665;40.108;18.302;2024-01-10T06:29:47;25.02;;;10.70;;
35562;SDS011;21665;40.108;18.302;2024-01-10T06:32:14;24.92;;;11.10;;
35562;SDS011;21665;40.108;18.302;2024-01-10T06:34:41;24.15;;;11.65;;
35562;SDS011;21665;40.108;18.302;2024-01-10T06:37:07;22.40;;;11.25;;
35562;SDS011;21665;40.108;18.302;2024-01-10T06:39:34;25.00;;;12.18;;
35562;SDS011;21665;40.108;18.302;2024-01-10T06:42:01;21.48;;;11.35;;
35562;SDS011;21665;40.108;18.302;2024-01-10T06:44:31;27.60;;;11.02;;
35562;SDS011;21665;40.108;18.302;2024-01-10T06:46:59;22.63;;;10.50;;
35562;SDS011;21665;40.108;18.302;2024-01-10T06:49:26;19.38;;;9.90;;
35562;SDS011;21665;40.108;18.302;2024-01-10T06:51:53;22.48;;;9.85;;
35562;SDS011;21665;40.108;18.302;2024-01-10T06:54:19;28.23;;;11.15;;
35562;SDS011;21665;40.108;18.302;2024-01-10T06:56:46;22.05;;;11.05;;
35562;SDS011;21665;40.108;18.302;2024-01-10T06:59:13;15.73;;;10.05;;
35562;SDS011;21665;40.108;18.302;2024-01-10T07:01:39;21.42;;;11.63;;
35562;SDS011;21665;40.108;18.302;2024-01-10T07:04:06;15.73;;;11.25;;
35562;SDS011;21665;40.108;18.302;2024-01-10T07:06:32;22.25;;;12.35;;
35562;SDS011;21665;40.108;18.302;2024-01-10T07:08:59;21.25;;;14.75;;
35562;SDS011;21665;40.108;18.302;2024-01-10T07:11:26;18.27;;;16.00;;
35562;SDS011;21665;40.108;18.302;2024-01-10T07:13:56;20.05;;;17.90;;
35562;SDS011;21665;40.108;18.302;2024-01-10T07:16:25;22.92;;;20.08;;
35562;SDS011;21665;40.108;18.302;2024-01-10T07:18:51;31.65;;;22.50;;
35562;SDS011;21665;40.108;18.302;2024-01-10T07:21:18;28.55;;;23.52;;
35562;SDS011;21665;40.108;18.302;2024-01-10T07:23:45;26.42;;;23.08;;
35562;SDS011;21665;40.108;18.302;2024-01-10T07:26:12;28.02;;;22.50;;
35562;SDS011;21665;40.108;18.302;2024-01-10T07:28:42;27.92;;;24.02;;
35562;SDS011;21665;40.108;18.302;2024-01-10T07:31:11;27.67;;;23.48;;
35562;SDS011;21665;40.108;18.302;2024-01-10T07:33:38;28.83;;;24.15;;
35562;SDS011;21665;40.108;18.302;2024-01-10T07:36:04;26.63;;;23.80;;
35562;SDS011;21665;40.108;18.302;2024-01-10T07:38:31;28.80;;;22.42;;
35562;SDS011;21665;40.108;18.302;2024-01-10T07:40:57;28.70;;;23.35;;
35562;SDS011;21665;40.108;18.302;2024-01-10T07:43:25;24.95;;;21.80;;
35562;SDS011;21665;40.108;18.302;2024-01-10T07:45:57;26.40;;;22.52;;
35562;SDS011;21665;40.108;18.302;2024-01-10T07:48:26;25.52;;;22.77;;
35562;SDS011;21665;40.108;18.302;2024-01-10T07:50:53;26.95;;;22.35;;
35562;SDS011;21665;40.108;18.302;2024-01-10T07:53:21;25.17;;;21.67;;
35562;SDS011;21665;40.108;18.302;2024-01-10T07:55:47;27.70;;;23.35;;
35562;SDS011;21665;40.108;18.302;2024-01-10T07:58:14;25.98;;;21.77;;
35562;SDS011;21665;40.108;18.302;2024-01-10T08:00:41;25.10;;;22.13;;
35562;SDS011;21665;40.108;18.302;2024-01-10T08:03:08;25.08;;;22.38;;
35562;SDS011;21665;40.108;18.302;2024-01-10T08:05:38;25.90;;;22.42;;
35562;SDS011;21665;40.108;18.302;2024-01-10T08:08:05;29.80;;;23.20;;
35562;SDS011;21665;40.108;18.302;2024-01-10T08:10:32;30.40;;;24.02;;
35562;SDS011;21665;40.108;18.302;2024-01-10T08:12:58;23.90;;;21.50;;
35562;SDS011;21665;40.108;18.302;2024-01-10T08:15:25;28.90;;;22.23;;
35562;SDS011;21665;40.108;18.302;2024-01-10T08:17:51;35.35;;;20.98;;
35562;SDS011;21665;40.108;18.302;2024-01-10T08:20:18;27.92;;;19.85;;
35562;SDS011;21665;40.108;18.302;2024-01-10T08:22:50;23.15;;;19.00;;
35562;SDS011;21665;40.108;18.302;2024-01-10T08:25:40;26.35;;;18.15;;
35562;SDS011;21665;40.108;18.302;2024-01-10T08:28:25;20.05;;;18.13;;
35562;SDS011;21665;40.108;18.302;2024-01-10T08:30:53;19.38;;;17.27;;
35562;SDS011;21665;40.108;18.302;2024-01-10T08:33:22;18.70;;;16.98;;
35562;SDS011;21665;40.108;18.302;2024-01-10T08:35:51;20.67;;;17.58;;
35562;SDS011;21665;40.108;18.302;2024-01-10T08:38:25;23.73;;;17.88;;
35562;SDS011;21665;40.108;18.302;2024-01-10T08:40:52;21.50;;;17.48;;
35562;SDS011;21665;40.108;18.302;2024-01-10T08:43:19;20.88;;;17.08;;
35562;SDS011;21665;40.108;18.302;2024-01-10T08:45:45;18.25;;;16.38;;
35562;SDS011;21665;40.108;18.302;2024-01-10T08:48:12;18.17;;;15.95;;
35562;SDS011;21665;40.108;18.302;2024-01-10T08:50:38;18.67;;;16.67;;
35562;SDS011;21665;40.108;18.302;2024-01-10T08:53:05;19.80;;;16.63;;
35562;SDS011;21665;40.108;18.302;2024-01-10T08:55:31;18.88;;;16.83;;
35562;SDS011;21665;40.108;18.302;2024-01-10T08:57:59;20.90;;;16.77;;
35562;SDS011;21665;40.108;18.302;2024-01-10T09:00:26;19.88;;;17.52;;
35562;SDS011;21665;40.108;18.302;2024-01-10T09:02:52;19.90;;;17.95;;
35562;SDS011;21665;40.108;18.302;2024-01-10T09:05:20;19.60;;;16.38;;
35562;SDS011;21665;40.108;18.302;2024-01-10T09:07:47;19.55;;;17.45;;
35562;SDS011;21665;40.108;18.302;2024-01-10T09:10:15;22.48;;;18.05;;
35562;SDS011;21665;40.108;18.302;2024-01-10T09:12:45;26.80;;;18.70;;
35562;SDS011;21665;40.108;18.302;2024-01-10T09:15:11;20.95;;;19.08;;
35562;SDS011;21665;40.108;18.302;2024-01-10T09:17:40;20.65;;;18.80;;
35562;SDS011;21665;40.108;18.302;2024-01-10T09:20:07;19.95;;;17.85;;
35562;SDS011;21665;40.108;18.302;2024-01-10T09:22:34;20.60;;;18.52;;
35562;SDS011;21665;40.108;18.302;2024-01-10T09:25:09;20.55;;;17.75;;
35562;SDS011;21665;40.108;18.302;2024-01-10T09:27:38;19.65;;;17.67;;
35562;SDS011;21665;40.108;18.302;2024-01-10T09:30:10;21.92;;;19.73;;
35562;SDS011;21665;40.108;18.302;2024-01-10T09:32:37;21.42;;;18.38;;
35562;SDS011;21665;40.108;18.302;2024-01-10T09:35:04;20.75;;;18.63;;
35562;SDS011;21665;40.108;18.302;2024-01-10T09:37:31;21.40;;;18.83;;
35562;SDS011;21665;40.108;18.302;2024-01-10T09:40:01;20.77;;;18.90;;
35562;SDS011;21665;40.108;18.302;2024-01-10T09:42:28;22.08;;;19.92;;
35562;SDS011;21665;40.108;18.302;2024-01-10T09:44:57;21.42;;;19.27;;
35562;SDS011;21665;40.108;18.302;2024-01-10T09:47:23;24.77;;;21.75;;
35562;SDS011;21665;40.108;18.302;2024-01-10T09:49:51;22.20;;;20.20;;
35562;SDS011;21665;40.108;18.302;2024-01-10T09:52:24;20.45;;;18.70;;
35562;SDS011;21665;40.108;18.302;2024-01-10T09:54:55;20.85;;;18.98;;
35562;SDS011;21665;40.108;18.302;2024-01-10T09:57:23;21.23;;;19.30;;
35562;SDS011;21665;40.108;18.302;2024-01-10T09:59:51;21.33;;;19.50;;
35562;SDS011;21665;40.108;18.302;2024-01-10T10:02:18;22.08;;;20.02;;
35562;SDS011;21665;40.108;18.302;2024-01-10T10:04:49;20.85;;;18.80;;
35562;SDS011;21665;40.108;18.302;2024-01-10T10:07:25;21.38;;;19.55;;
35562;SDS011;21665;40.108;18.302;2024-01-10T10:09:54;22.10;;;20.20;;
35562;SDS011;21665;40.108;18.302;2024-01-10T10:15:21;21.98;;;19.98;;
35562;SDS011;21665;40.108;18.302;2024-01-10T10:17:49;22.60;;;20.42;;
35562;SDS011;21665;40.108;18.302;2024-01-10T10:20:23;22.13;;;20.23;;
35562;SDS011;21665;40.108;18.302;2024-01-10T10:23:00;21.83;;;19.92;;
35562;SDS011;21665;40.108;18.302;2024-01-10T10:25:45;22.60;;;20.50;;
35562;SDS011;21665;40.108;18.302;2024-01-10T10:28:13;23.00;;;21.00;;
35562;SDS011;21665;40.108;18.302;2024-01-10T10:30:40;22.58;;;20.65;;
35562;SDS011;21665;40.108;18.302;2024-01-10T10:33:07;23.25;;;21.13;;
35562;SDS011;21665;40.108;18.302;2024-01-10T10:35:35;23.27;;;20.98;;
35562;SDS011;21665;40.108;18.302;2024-01-10T10:38:08;23.67;;;21.70;;
35562;SDS011;21665;40.108;18.302;2024-01-10T10:40:37;22.08;;;20.48;;
35562;SDS011;21665;40.108;18.302;2024-01-10T10:43:27;22.52;;;20.67;;
35562;SDS011;21665;40.108;18.302;2024-01-10T10:46:13;22.85;;;21.05;;
35562;SDS011;21665;40.108;18.302;2024-01-10T10:48:42;23.05;;;21.02;;
35562;SDS011;21665;40.108;18.302;2024-01-10T10:51:37;22.52;;;20.63;;
35562;SDS011;21665;40.108;18.302;2024-01-10T10:54:17;22.40;;;20.55;;
35562;SDS011;21665;40.108;18.302;2024-01-10T10:56:48;22.80;;;20.75;;
35562;SDS011;21665;40.108;18.302;2024-01-10T10:59:17;23.50;;;21.50;;
35562;SDS011;21665;40.108;18.302;2024-01-10T11:01:48;22.77;;;20.52;;
35562;SDS011;21665;40.108;18.302;2024-01-10T11:04:16;21.23;;;19.45;;
35562;SDS011;21665;40.108;18.302;2024-01-10T11:06:43;21.08;;;19.48;;
35562;SDS011;21665;40.108;18.302;2024-01-10T11:09:14;22.30;;;20.02;;
35562;SDS011;21665;40.108;18.302;2024-01-10T11:14:43;21.55;;;19.63;;
35562;SDS011;21665;40.108;18.302;2024-01-10T11:17:44;22.20;;;20.15;;
35562;SDS011;21665;40.108;18.302;2024-01-10T11:25:59;24.55;;;22.23;;
35562;SDS011;21665;40.108;18.302;2024-01-10T11:28:31;25.02;;;22.80;;
35562;SDS011;21665;40.108;18.302;2024-01-10T11:30:58;25.58;;;23.42;;
35562;SDS011;21665;40.108;18.302;2024-01-10T11:33:30;26.20;;;23.90;;
35562;SDS011;21665;40.108;18.302;2024-01-10T11:36:15;26.10;;;23.98;;
35562;SDS011;21665;40.108;18.302;2024-01-10T11:41:33;25.98;;;23.88;;
35562;SDS011;21665;40.108;18.302;2024-01-10T11:46:37;25.98;;;23.60;;
35562;SDS011;21665;40.108;18.302;2024-01-10T11:49:29;25.20;;;23.30;;
35562;SDS011;21665;40.108;18.302;2024-01-10T11:56:52;24.83;;;22.95;;
35562;SDS011;21665;40.108;18.302;2024-01-10T11:59:41;25.02;;;22.90;;
35562;SDS011;21665;40.108;18.302;2024-01-10T12:02:11;24.05;;;22.30;;
35562;SDS011;21665;40.108;18.302;2024-01-10T12:04:44;23.70;;;21.75;;
35562;SDS011;21665;40.108;18.302;2024-01-10T12:07:14;24.33;;;22.30;;
35562;SDS011;21665;40.108;18.302;2024-01-10T12:09:45;23.38;;;21.48;;
35562;SDS011;21665;40.108;18.302;2024-01-10T12:12:15;25.05;;;22.90;;
35562;SDS011;21665;40.108;18.302;2024-01-10T12:14:44;25.33;;;22.80;;
35562;SDS011;21665;40.108;18.302;2024-01-10T12:17:15;23.70;;;21.63;;
35562;SDS011;21665;40.108;18.302;2024-01-10T12:19:56;25.23;;;23.00;;
35562;SDS011;21665;40.108;18.302;2024-01-10T12:26:18;26.00;;;23.55;;
35562;SDS011;21665;40.108;18.302;2024-01-10T12:29:00;25.45;;;23.08;;
35562;SDS011;21665;40.108;18.302;2024-01-10T12:31:28;25.08;;;22.77;;
35562;SDS011;21665;40.108;18.302;2024-01-10T12:33:55;24.08;;;22.10;;
35562;SDS011;21665;40.108;18.302;2024-01-10T12:36:22;24.10;;;22.15;;
35562;SDS011;21665;40.108;18.302;2024-01-10T12:38:48;23.15;;;21.45;;
35562;SDS011;21665;40.108;18.302;2024-01-10T12:41:19;23.52;;;21.88;;
35562;SDS011;21665;40.108;18.302;2024-01-10T12:43:52;25.15;;;22.80;;
35562;SDS011;21665;40.108;18.302;2024-01-10T12:46:23;25.25;;;23.25;;
35562;SDS011;21665;40.108;18.302;2024-01-10T12:49:00;25.50;;;23.40;;
35562;SDS011;21665;40.108;18.302;2024-01-10T12:51:33;24.80;;;22.88;;
35562;SDS011;21665;40.108;18.302;2024-01-10T12:54:02;25.58;;;23.55;;
35562;SDS011;21665;40.108;18.302;2024-01-10T12:56:33;25.15;;;23.25;;
35562;SDS011;21665;40.108;18.302;2024-01-10T12:59:01;25.80;;;23.65;;
35562;SDS011;21665;40.108;18.302;2024-01-10T13:01:27;26.08;;;24.10;;
35562;SDS011;21665;40.108;18.302;2024-01-10T13:03:54;26.15;;;23.80;;
35562;SDS011;21665;40.108;18.302;2024-01-10T13:06:21;25.23;;;23.42;;
35562;SDS011;21665;40.108;18.302;2024-01-10T13:08:48;25.75;;;23.80;;
35562;SDS011;21665;40.108;18.302;2024-01-10T13:11:15;25.70;;;23.75;;
35562;SDS011;21665;40.108;18.302;2024-01-10T13:13:42;25.10;;;23.15;;
35562;SDS011;21665;40.108;18.302;2024-01-10T13:16:11;24.85;;;22.98;;
35562;SDS011;21665;40.108;18.302;2024-01-10T13:18:38;24.88;;;22.85;;
35562;SDS011;21665;40.108;18.302;2024-01-10T13:21:06;26.02;;;23.63;;
35562;SDS011;21665;40.108;18.302;2024-01-10T13:23:33;26.05;;;23.90;;
35562;SDS011;21665;40.108;18.302;2024-01-10T13:26:02;27.33;;;24.98;;
35562;SDS011;21665;40.108;18.302;2024-01-10T13:28:29;26.63;;;24.45;;
35562;SDS011;21665;40.108;18.302;2024-01-10T13:30:56;26.67;;;24.48;;
35562;SDS011;21665;40.108;18.302;2024-01-10T13:33:22;25.85;;;23.88;;
35562;SDS011;21665;40.108;18.302;2024-01-10T13:35:49;25.48;;;23.42;;
35562;SDS011;21665;40.108;18.302;2024-01-10T13:38:15;26.30;;;23.65;;
35562;SDS011;21665;40.108;18.302;2024-01-10T13:40:42;25.70;;;23.40;;
35562;SDS011;21665;40.108;18.302;2024-01-10T13:43:08;25.40;;;23.15;;
35562;SDS011;21665;40.108;18.302;2024-01-10T13:45:35;25.20;;;23.00;;
35562;SDS011;21665;40.108;18.302;2024-01-10T13:48:01;24.58;;;22.48;;
35562;SDS011;21665;40.108;18.302;2024-01-10T13:50:27;24.05;;;22.15;;
35562;SDS011;21665;40.108;18.302;2024-01-10T13:52:56;24.80;;;22.67;;
35562;SDS011;21665;40.108;18.302;2024-01-10T13:55:22;25.73;;;23.42;;
35562;SDS011;21665;40.108;18.302;2024-01-10T13:57:50;26.73;;;24.05;;
35562;SDS011;21665;40.108;18.302;2024-01-10T14:00:19;24.60;;;22.42;;
35562;SDS011;21665;40.108;18.302;2024-01-10T14:02:46;24.83;;;22.45;;
35562;SDS011;21665;40.108;18.302;2024-01-10T14:05:13;23.63;;;21.73;;
35562;SDS011;21665;40.108;18.302;2024-01-10T14:07:40;23.90;;;21.77;;
35562;SDS011;21665;40.108;18.302;2024-01-10T14:10:10;23.65;;;21.70;;
35562;SDS011;21665;40.108;18.302;2024-01-10T14:12:36;24.10;;;21.92;;
35562;SDS011;21665;40.108;18.302;2024-01-10T14:15:03;23.35;;;21.67;;
35562;SDS011;21665;40.108;18.302;2024-01-10T14:17:30;23.65;;;21.85;;
35562;SDS011;21665;40.108;18.302;2024-01-10T14:19:56;23.75;;;21.85;;
35562;SDS011;21665;40.108;18.302;2024-01-10T14:22:23;24.80;;;22.65;;
35562;SDS011;21665;40.108;18.302;2024-01-10T14:24:50;23.63;;;21.40;;
35562;SDS011;21665;40.108;18.302;2024-01-10T14:27:17;24.63;;;22.42;;
35562;SDS011;21665;40.108;18.302;2024-01-10T14:29:43;25.05;;;22.75;;
35562;SDS011;21665;40.108;18.302;2024-01-10T14:32:09;25.27;;;22.83;;
35562;SDS011;21665;40.108;18.302;2024-01-10T14:34:39;25.77;;;23.17;;
35562;SDS011;21665;40.108;18.302;2024-01-10T14:37:06;31.10;;;25.23;;
35562;SDS011;21665;40.108;18.302;2024-01-10T14:39:33;29.77;;;24.77;;
35562;SDS011;21665;40.108;18.302;2024-01-10T14:42:07;26.23;;;23.42;;
35562;SDS011;21665;40.108;18.302;2024-01-10T14:44:37;25.05;;;22.38;;
35562;SDS011;21665;40.108;18.302;2024-01-10T14:47:03;24.85;;;22.30;;
35562;SDS011;21665;40.108;18.302;2024-01-10T14:49:30;23.98;;;21.67;;
35562;SDS011;21665;40.108;18.302;2024-01-10T14:51:56;23.55;;;21.33;;